Latest Weather Observations for Oenpelli Airport

IDD60801

Issued at 11:01 am CST Wednesday 4 May 2016 (issued every 30 minutes, with the page automatically refreshed every 10 minutes)

About weather observations | Map of weather stations | Latest weather observations for NT | Other Formats
Station Details ID: 014310 Name: OENPELLI AIRPORT Lat: -12.33 Lon: 133.01 Height: 7.5 m
Data from the previous 72 hours. | See also: Recent months at Oenpelli Airport
Date/Time
CST
Temp
°C
App
Temp
°C
Dew
Point
Rel
Hum
%
Delta-T
°C
Wind Press
QNH
hPa
Press
MSL
hPa
Rain
since 9 am
mm
Dir
 
Spd
km/h
Gust
km/h
Spd
kts
Gust
kts
04/11:00am 32.9 34.4 23.0 56 6.8 E 20 30 11 16 1012.7 1012.6 0.2
04/10:30am 32.3 34.2 22.7 57 6.6 E 17 24 9 13 1012.9 1012.8 0.0
04/10:00am 32.0 35.0 23.3 60 6.0 ENE 13 20 7 11 1013.2 1013.1 0.0
04/09:30am 31.8 36.0 24.1 63 5.4 ENE 9 15 5 8 1013.2 1013.1 0.0
04/09:00am 30.7 34.9 24.8 71 4.1 ENE 11 17 6 9 1013.1 1013.0 0.0
04/08:30am 29.3 34.6 25.3 79 2.8 E 7 11 4 6 1012.7 1012.6 0.0
04/08:00am 27.5 33.9 25.5 89 1.4 NNW 2 4 1 2 1012.4 1012.3 0.0
04/07:30am 26.9 32.9 25.5 92 1.0 NNW 4 6 2 3 1012.1 1012.0 0.0
04/07:00am 26.4 33.1 25.4 94 0.7 CALM 0 0 0 0 1011.5 1011.4 0.0
04/06:30am 26.3 32.8 25.1 93 0.8 CALM 0 0 0 0 1011.5 1011.4 0.0
04/06:00am 26.2 32.7 25.0 93 0.8 CALM 0 0 0 0 1011.3 1011.2 0.0
04/05:30am 26.4 32.9 25.0 92 1.0 CALM 0 0 0 0 1011.0 1010.9 0.0
04/05:00am 26.6 32.9 24.8 90 1.3 CALM 0 2 0 1 1010.8 1010.7 0.0
04/04:30am 27.1 33.5 24.9 88 1.5 CALM 0 0 0 0 1010.6 1010.5 0.0
04/04:00am 27.2 33.3 25.0 88 1.5 ENE 2 4 1 2 1010.5 1010.4 0.0
04/03:30am 27.2 33.4 25.2 89 1.4 E 2 4 1 2 1010.8 1010.7 0.0
04/03:00am 27.2 33.3 25.0 88 1.5 NNE 2 4 1 2 1011.0 1010.9 0.0
04/02:30am 27.2 33.2 24.8 87 1.7 N 2 4 1 2 1011.2 1011.1 0.0
04/02:00am 27.2 33.5 24.7 86 1.7 CALM 0 2 0 1 1011.2 1011.1 0.0
04/01:30am 27.4 33.3 24.7 85 1.9 NE 2 4 1 2 1011.5 1011.4 0.0
04/01:00am 27.5 33.4 24.7 85 1.9 E 2 6 1 3 1011.6 1011.5 0.0
04/12:30am 27.2 33.5 24.8 87 1.7 CALM 0 0 0 0 1011.8 1011.7 0.0
04/12:00am 27.3 32.8 24.6 85 1.9 ENE 4 6 2 3 1011.8 1011.7 0.0
 
Date/Time
CST
Temp
°C
App
Temp
°C
Dew
Point
Rel
Hum
%
Delta-T
°C
Wind Press
QNH
hPa
Press
MSL
hPa
Rain
since 9 am
mm
Dir
 
Spd
km/h
Gust
km/h
Spd
kts
Gust
kts
03/11:30pm 27.7 33.2 24.1 81 2.5 NE 2 4 1 2 1012.1 1012.0 0.0
03/11:00pm 28.3 33.1 24.1 78 2.9 ENE 6 7 3 4 1012.3 1012.2 0.0
03/10:30pm 28.1 34.0 24.1 79 2.8 CALM 0 4 0 2 1012.6 1012.5 0.0
03/10:00pm 28.3 33.1 24.1 78 2.9 ENE 6 6 3 3 1012.6 1012.5 0.0
03/09:30pm 28.4 33.1 24.0 77 3.0 NE 6 9 3 5 1012.5 1012.4 0.0
03/09:00pm 28.3 33.1 24.1 78 2.9 ENE 6 9 3 5 1012.0 1011.9 0.0
03/08:30pm 28.1 32.9 24.1 79 2.8 NE 6 9 3 5 1011.5 1011.4 0.0
03/08:00pm 28.5 34.0 24.1 77 3.0 NE 2 6 1 3 1011.6 1011.5 0.0
03/07:30pm 28.8 33.1 23.7 74 3.5 NNE 7 11 4 6 1011.3 1011.2 0.0
03/07:00pm 28.8 33.6 24.1 76 3.3 NNE 6 7 3 4 1010.8 1010.7 0.0
03/06:30pm 29.3 34.4 24.0 73 3.7 NE 4 4 2 2 1010.5 1010.4 0.0
03/06:00pm 29.6 34.2 23.8 71 4.0 NNE 6 7 3 4 1010.1 1010.0 0.0
03/05:30pm 29.9 34.0 23.3 67 4.5 NNE 7 9 4 5 1010.0 1009.9 0.0
03/05:00pm 30.2 33.8 23.1 65 4.9 NNE 9 15 5 8 1009.5 1009.4 0.0
03/04:30pm 30.8 34.3 23.5 65 5.0 NNE 11 15 6 8 1009.2 1009.1 0.0
03/04:00pm 30.5 34.5 23.7 67 4.7 NNE 9 15 5 8 1009.1 1009.0 0.0
03/03:30pm 30.9 34.7 23.5 64 5.1 NNE 9 15 5 8 1009.0 1008.9 0.0
03/03:00pm 31.2 33.9 22.8 61 5.8 NE 13 20 7 11 1009.0 1008.9 0.0
03/02:30pm 31.6 34.0 23.7 63 5.5 NE 17 22 9 12 1009.2 1009.1 0.0
03/02:00pm 31.6 35.1 24.2 65 5.2 N 13 20 7 11 1009.7 1009.6 0.0
03/01:30pm 30.8 34.3 24.2 68 4.6 NNE 13 17 7 9 1010.4 1010.3 0.0
03/01:00pm 30.8 34.7 24.2 68 4.6 NNE 11 17 6 9 1011.1 1011.0 0.0
03/12:30pm 30.2 33.9 23.9 69 4.4 NNE 11 17 6 9 1011.4 1011.3 0.0
03/12:00pm 31.0 34.1 24.1 66 4.8 NE 15 22 8 12 1011.8 1011.7 0.0
03/11:30am 31.4 34.4 24.0 65 5.2 NE 15 20 8 11 1012.6 1012.5 0.0
03/11:00am 30.9 33.2 24.1 67 4.7 NNE 19 24 10 13 1013.2 1013.1 0.0
03/10:30am 30.9 33.4 23.8 66 4.9 NE 17 24 9 13 1013.4 1013.3 0.0
03/10:00am 32.4 35.1 24.2 62 5.7 ENE 17 24 9 13 1013.3 1013.2 0.0
03/09:30am 31.1 34.2 24.2 66 4.8 E 15 24 8 13 1013.4 1013.3 0.0
03/09:00am 30.3 34.9 24.7 72 3.9 E 9 17 5 9 1013.1 1013.0 0.0
03/08:30am 29.5 35.6 25.7 80 2.7 E 4 7 2 4 1012.9 1012.8 0.0
03/08:00am 27.5 33.3 25.1 87 1.7 WSW 4 6 2 3 1012.8 1012.7 0.0
03/07:30am 26.1 32.3 25.2 95 0.6 WSW 2 4 1 2 1012.7 1012.6 0.0
03/07:00am 25.5 31.6 24.5 94 0.7 CALM 0 0 0 0 1012.4 1012.3 0.0
03/06:30am 25.3 31.3 24.3 94 0.7 CALM 0 0 0 0 1011.8 1011.7 0.0
03/06:00am 25.6 31.7 24.4 93 0.8 CALM 0 0 0 0 1011.4 1011.3 0.0
03/05:30am 25.5 31.5 24.3 93 0.8 CALM 0 0 0 0 1011.2 1011.1 0.0
03/05:00am 25.5 31.4 24.1 92 1.0 CALM 0 0 0 0 1011.0 1010.9 0.0
03/04:30am 25.5 31.4 24.1 92 1.0 CALM 0 0 0 0 1010.8 1010.7 0.0
03/04:00am 25.5 30.6 24.1 92 1.0 WSW 4 6 2 3 1010.9 1010.8 0.0
03/03:30am 25.5 30.5 23.9 91 1.1 SW 4 6 2 3 1011.0 1010.9 0.0
03/03:00am 25.5 30.2 23.4 88 1.4 NNW 4 6 2 3 1011.0 1010.9 0.0
03/02:30am 25.7 30.7 23.2 86 1.7 NNW 2 4 1 2 1011.0 1010.9 0.0
03/02:00am 26.4 32.0 23.5 84 2.0 CALM 0 0 0 0 1011.3 1011.2 0.0
03/01:30am 26.6 32.2 23.5 83 2.1 CALM 0 2 0 1 1011.6 1011.5 0.0
03/01:00am 26.6 31.9 23.1 81 2.4 CALM 0 4 0 2 1011.7 1011.6 0.0
03/12:30am 26.8 31.7 23.1 80 2.5 E 2 6 1 3 1011.9 1011.8 0.0
03/12:00am 26.4 31.6 22.9 81 2.4 CALM 0 2 0 1 1012.4 1012.3 0.0
 
Date/Time
CST
Temp
°C
App
Temp
°C
Dew
Point
Rel
Hum
%
Delta-T
°C
Wind Press
QNH
hPa
Press
MSL
hPa
Rain
since 9 am
mm
Dir
 
Spd
km/h
Gust
km/h
Spd
kts
Gust
kts
02/11:30pm 26.3 30.1 22.4 79 2.6 SW 6 9 3 5 1012.7 1012.6 0.0
02/11:00pm 27.2 31.8 21.7 72 3.7 CALM 0 0 0 0 1012.6 1012.5 0.0
02/10:30pm 27.7 31.0 21.5 69 4.1 ENE 6 7 3 4 1012.7 1012.6 0.0
02/10:00pm 27.8 31.7 21.1 67 4.4 ESE 2 6 1 3 1013.0 1012.9 0.0
02/09:30pm 28.3 31.4 21.1 65 4.8 E 6 9 3 5 1013.7 1013.6 0.0
02/09:00pm 28.5 32.0 21.8 67 4.5 ESE 6 7 3 4 1013.1 1013.0 0.0
02/08:30pm 28.7 33.3 23.1 71 3.8 NNE 4 6 2 3 1012.8 1012.7 0.0
02/08:00pm 29.0 33.2 23.4 72 3.8 ENE 7 13 4 7 1012.4 1012.3 0.0
02/07:30pm 29.2 33.4 23.4 71 4.0 NE 7 13 4 7 1011.8 1011.7 0.0
02/07:00pm 29.6 33.3 22.6 66 4.8 NNE 7 11 4 6 1011.1 1011.0 0.0
02/06:30pm 30.2 33.5 22.6 63 5.2 NNE 9 13 5 7 1010.9 1010.8 0.0
02/06:00pm 30.9 34.2 22.5 61 5.7 NNE 9 13 5 7 1010.3 1010.2 0.0
02/05:30pm 31.6 35.1 22.9 60 6.0 NNE 9 15 5 8 1009.9 1009.8 0.0
02/05:00pm 32.9 35.4 22.4 54 7.2 NNE 13 22 7 12 1009.0 1008.9 0.0
02/04:30pm 33.6 36.0 23.0 54 7.3 NNE 15 22 8 12 1008.8 1008.7 0.0
02/04:00pm 34.1 35.7 22.2 50 8.1 NNE 17 24 9 13 1008.6 1008.5 0.0
02/03:30pm 34.8 37.1 23.5 52 7.9 N 17 22 9 12 1008.8 1008.7 0.0
02/03:00pm 34.1 36.4 22.8 51 7.8 NE 15 24 8 13 1009.0 1008.9 0.0
02/02:30pm 34.4 36.2 21.8 48 8.6 NE 15 22 8 12 1009.2 1009.1 0.0
02/02:00pm 34.9 37.1 23.2 50 8.1 ENE 17 24 9 13 1009.4 1009.3 0.0
02/01:30pm 34.3 36.7 23.6 53 7.5 ENE 17 28 9 15 1009.9 1009.8 0.0
02/01:00pm 33.7 35.6 23.4 55 7.2 NE 19 30 10 16 1010.4 1010.3 0.0
02/12:30pm 33.7 36.1 24.3 58 6.6 NE 19 28 10 15 1011.0 1010.9 0.0
02/12:00pm 33.2 36.6 25.2 63 5.7 NE 17 26 9 14 1011.6 1011.5 0.0
02/11:30am 31.8 34.5 24.7 66 5.0 NE 19 30 10 16 1012.1 1012.0 0.0
02/11:00am 31.3 34.3 24.7 68 4.6 NE 17 28 9 15 1012.3 1012.2 0.0
02/10:30am 31.1 35.3 25.9 74 3.7 ENE 15 22 8 12 1012.6 1012.5 0.0
02/10:00am 29.9 34.3 25.6 78 3.0 ENE 13 20 7 11 1012.7 1012.6 0.0
02/09:30am 29.4 33.8 25.6 80 2.7 ENE 13 17 7 9 1012.8 1012.7 0.0
02/09:00am 28.7 34.7 26.3 87 1.7 NE 7 11 4 6 1012.4 1012.3 2.4
02/08:30am 28.1 34.5 26.1 89 1.4 NE 4 6 2 3 1012.3 1012.2 2.4
02/08:00am 27.0 34.4 26.5 97 0.4 CALM 0 0 0 0 1012.0 1011.9 2.4
02/07:30am 26.2 32.9 25.9 98 0.2 NNW 2 6 1 3 1011.5 1011.4 2.4
02/07:00am 26.0 32.9 25.7 98 0.2 CALM 0 0 0 0 1011.0 1010.9 2.4
02/06:30am 25.7 32.4 25.4 98 0.2 CALM 0 0 0 0 1010.9 1010.8 2.4
02/06:00am 25.6 32.1 25.1 97 0.3 CALM 0 0 0 0 1010.5 1010.4 2.4
02/05:30am 25.8 32.4 25.3 97 0.3 CALM 0 0 0 0 1010.2 1010.1 2.4
02/05:00am 25.9 32.5 25.2 96 0.5 CALM 0 0 0 0 1010.0 1009.9 2.4
02/04:30am 26.1 32.3 25.2 95 0.6 N 2 4 1 2 1009.9 1009.8 2.4
02/04:00am 26.4 33.1 25.4 94 0.7 CALM 0 0 0 0 1009.8 1009.7 2.4
02/03:30am 26.6 33.3 25.4 93 0.8 CALM 0 0 0 0 1009.8 1009.7 2.4
02/03:00am 26.6 32.5 25.4 93 0.8 NNE 4 6 2 3 1009.9 1009.8 2.4
02/02:30am 26.9 33.7 25.5 92 1.0 CALM 0 0 0 0 1009.9 1009.8 2.4
02/02:00am 26.8 33.3 25.6 93 0.8 NNE 2 2 1 1 1010.2 1010.1 2.4
02/01:30am 26.8 33.5 25.4 92 1.0 CALM 0 0 0 0 1010.4 1010.3 2.4
02/01:00am 27.0 33.8 25.6 92 1.0 CALM 0 0 0 0 1010.7 1010.6 2.4
02/12:30am 27.1 33.0 25.3 90 1.3 SSE 4 4 2 2 1011.1 1011.0 2.4
02/12:00am 27.4 33.1 25.6 90 1.3 NE 6 9 3 5 1011.2 1011.1 2.4
 
Date/Time
CST
Temp
°C
App
Temp
°C
Dew
Point
Rel
Hum
%
Delta-T
°C
Wind Press
QNH
hPa
Press
MSL
hPa
Rain
since 9 am
mm
Dir
 
Spd
km/h
Gust
km/h
Spd
kts
Gust
kts
01/11:30pm 27.4 32.9 25.6 90 1.3 E 7 9 4 5 1011.3 1011.2 2.4
01/11:00pm 27.3 33.6 25.9 92 1.0 NNW 4 6 2 3 1011.5 1011.4 2.4
01/10:30pm 27.2 33.9 26.0 93 0.8 NNW 2 4 1 2 1011.8 1011.7 2.4
01/10:00pm 27.2 33.7 25.6 91 1.1 NNW 2 6 1 3 1012.1 1012.0 2.2
01/09:30pm 26.7 32.7 24.9 90 1.3 NNW 2 6 1 3 1011.9 1011.8 2.2
01/09:00pm 27.0 33.7 25.4 91 1.1 CALM 0 0 0 0 1012.0 1011.9 2.2
01/08:30pm 26.7 33.1 24.9 90 1.3 CALM 0 0 0 0 1011.9 1011.8 2.2
01/08:00pm 26.5 32.1 24.2 87 1.6 NNW 2 4 1 2 1012.0 1011.9 2.2
01/07:30pm 26.9 32.6 24.4 86 1.7 ESE 2 6 1 3 1011.8 1011.7 0.8
01/07:00pm 27.4 32.2 24.1 82 2.3 E 6 7 3 4 1011.1 1011.0 0.0
01/06:30pm 26.9 31.7 24.4 86 1.7 E 7 11 4 6 1010.4 1010.3 0.0
01/06:00pm 26.5 31.0 24.0 86 1.7 E 7 13 4 7 1010.4 1010.3 0.0
01/05:30pm 26.3 26.1 22.8 81 2.4 E 28 39 15 21 1010.0 1009.9 0.0
01/05:20pm 27.8 26.3 21.8 70 4.0 ENE 32 50 17 27 1009.7 1009.6 0.0
01/05:11pm 29.7 30.6 22.7 66 4.8 NE 22 50 12 27 1009.4 1009.3 0.0
01/05:00pm 29.7 32.8 23.6 69 4.2 NE 13 24 7 13 1009.3 1009.2 0.0
01/04:30pm 30.6 33.0 23.0 64 5.2 NNE 15 24 8 13 1008.1 1008.0 0.0
01/04:00pm 33.7 35.0 23.4 55 7.2 NNE 22 32 12 17 1007.6 1007.5 0.0
01/03:30pm 33.6 35.1 22.7 53 7.5 NE 19 28 10 15 1007.9 1007.8 0.0
01/03:00pm 36.3 37.6 20.1 38 10.9 E 13 24 7 13 1007.8 1007.7 0.0
01/02:30pm 35.4 37.7 21.3 44 9.6 ENE 11 20 6 11 1008.2 1008.1 0.0
01/02:00pm 35.9 37.6 21.7 43 9.7 ENE 15 22 8 12 1008.7 1008.6 0.0
01/01:30pm 35.4 36.3 20.9 42 9.8 ENE 17 24 9 13 1009.1 1009.0 0.0
01/01:00pm 35.2 36.1 21.5 45 9.3 ENE 19 32 10 17 1009.7 1009.6 0.0
01/12:30pm 34.0 35.6 21.4 47 8.5 ENE 15 22 8 12 1010.1 1010.0 0.0
01/12:00pm 34.6 36.1 22.0 48 8.6 ENE 17 24 9 13 1010.5 1010.4 0.0
01/11:30am 34.4 36.0 22.1 48 8.4 E 17 24 9 13 1010.9 1010.8 0.0

Other Formats:

Comma delimited format used in spreadsheet applications
http://www.bom.gov.au/fwo/IDD60801/IDD60801.94110.axf

JavaScript Object Notation format (JSON) in row-major order
http://www.bom.gov.au/fwo/IDD60801/IDD60801.94110.json